createdAt,value
2018-11-02T00:01:52.540Z,4.57
2018-11-02T00:05:49.192Z,4.50
2018-11-02T00:09:46.125Z,5.07
2018-11-02T00:13:42.603Z,4.60
2018-11-02T00:17:39.526Z,4.60
2018-11-02T00:21:36.500Z,4.40
2018-11-02T00:25:33.372Z,3.80
2018-11-02T00:29:31.092Z,3.93
2018-11-02T00:33:28.021Z,4.27
2018-11-02T00:37:25.082Z,4.27
2018-11-02T00:41:21.822Z,3.80
2018-11-02T00:45:18.090Z,4.03
2018-11-02T00:49:14.745Z,4.07
2018-11-02T00:53:11.525Z,3.80
2018-11-02T00:57:08.517Z,4.10
2018-11-02T01:01:04.732Z,3.80
2018-11-02T01:05:01.184Z,3.70
2018-11-02T01:08:57.918Z,3.93
2018-11-02T01:12:54.492Z,3.70
2018-11-02T01:16:51.572Z,3.40
2018-11-02T01:20:48.510Z,4.00
2018-11-02T01:24:45.304Z,3.90
2018-11-02T01:28:42.490Z,4.33
2018-11-02T01:32:39.613Z,4.47
2018-11-02T01:36:36.352Z,4.37
2018-11-02T01:40:33.448Z,4.97
2018-11-02T01:44:30.688Z,4.27
2018-11-02T01:48:27.573Z,4.17
2018-11-02T01:52:24.354Z,3.90
2018-11-02T01:56:21.135Z,4.20
2018-11-02T02:00:18.792Z,3.30
2018-11-02T02:04:15.520Z,3.60
2018-11-02T02:08:12.262Z,2.77
2018-11-02T02:12:10.369Z,3.23
2018-11-02T02:16:07.163Z,2.87
2018-11-02T02:20:04.093Z,2.50
2018-11-02T02:24:00.971Z,2.57
2018-11-02T02:27:57.649Z,2.13
2018-11-02T02:31:54.618Z,1.90
2018-11-02T02:35:51.315Z,1.90
2018-11-02T02:39:47.925Z,2.50
2018-11-02T02:43:44.539Z,2.30
2018-11-02T02:47:41.819Z,2.00
2018-11-02T02:51:38.668Z,2.40
2018-11-02T02:55:35.493Z,2.77
2018-11-02T02:59:32.239Z,2.77
2018-11-02T03:03:28.766Z,3.30
2018-11-02T03:07:25.523Z,3.00
2018-11-02T03:11:22.612Z,2.60
2018-11-02T03:15:19.372Z,3.10
2018-11-02T03:19:16.161Z,2.93
2018-11-02T03:23:12.726Z,3.20
2018-11-02T03:27:09.478Z,3.30
2018-11-02T03:31:06.196Z,3.83
2018-11-02T03:35:02.779Z,3.70
2018-11-02T03:39:00.394Z,4.07
2018-11-02T03:42:57.096Z,4.60
2018-11-02T03:46:53.648Z,4.73
2018-11-02T03:50:50.493Z,5.37
2018-11-02T03:54:47.669Z,5.60
2018-11-02T03:58:45.595Z,5.20
2018-11-02T04:02:43.080Z,5.27
2018-11-02T04:06:40.599Z,5.60
2018-11-02T04:10:37.991Z,5.27
2018-11-02T04:14:35.042Z,6.10
2018-11-02T04:18:32.798Z,6.43
2018-11-02T04:22:29.514Z,6.53
2018-11-02T04:26:26.333Z,7.23
2018-11-02T04:30:22.953Z,7.93
2018-11-02T04:34:20.892Z,8.50
2018-11-02T04:38:17.643Z,8.00
2018-11-02T04:42:15.049Z,8.93
2018-11-02T04:46:11.838Z,7.97
2018-11-02T04:50:09.480Z,9.03
2018-11-02T04:54:06.613Z,9.63
2018-11-02T04:58:03.342Z,10.13
2018-11-02T05:02:00.049Z,10.00
2018-11-02T05:05:56.730Z,11.47
2018-11-02T05:09:53.630Z,11.23
2018-11-02T05:13:50.362Z,12.10
2018-11-02T05:17:47.081Z,12.50
2018-11-02T05:21:44.057Z,12.17
2018-11-02T05:25:40.909Z,13.03
2018-11-02T05:29:38.014Z,12.93
2018-11-02T05:33:34.774Z,12.30
2018-11-02T05:37:31.533Z,12.53
2018-11-02T05:41:28.255Z,13.03
2018-11-02T05:45:24.662Z,12.13
2018-11-02T05:49:22.073Z,11.57
2018-11-02T05:53:21.472Z,12.23
2018-11-02T05:57:19.444Z,12.43
2018-11-02T06:01:17.110Z,12.00
2018-11-02T06:05:14.790Z,11.07
2018-11-02T06:09:11.414Z,11.12
2018-11-02T06:13:08.243Z,11.45
2018-11-02T06:17:05.014Z,11.40
2018-11-02T06:21:01.760Z,11.33
2018-11-02T06:24:58.484Z,10.63
2018-11-02T06:28:56.261Z,11.33
2018-11-02T06:32:53.457Z,10.20
2018-11-02T06:36:50.170Z,10.80
2018-11-02T06:40:46.977Z,11.60
2018-11-02T06:44:44.152Z,10.50
2018-11-02T06:48:41.196Z,10.90
2018-11-02T06:52:38.817Z,11.70
2018-11-02T06:56:35.465Z,12.23
2018-11-02T07:00:32.458Z,12.70
2018-11-02T07:04:29.167Z,11.17
2018-11-02T07:08:26.468Z,11.90
2018-11-02T07:12:23.121Z,12.40
2018-11-02T07:16:20.091Z,11.40
2018-11-02T07:20:17.296Z,11.03
2018-11-02T07:24:14.154Z,11.20
2018-11-02T07:28:11.950Z,11.97
2018-11-02T07:32:09.019Z,10.87
2018-11-02T07:36:05.990Z,11.57
2018-11-02T07:40:02.766Z,10.33
2018-11-02T07:43:59.887Z,10.80
2018-11-02T07:47:56.856Z,9.43
2018-11-02T07:51:53.972Z,9.40
2018-11-02T07:55:51.012Z,10.60
2018-11-02T07:59:47.872Z,10.63
2018-11-02T08:03:44.758Z,9.73
2018-11-02T08:07:41.204Z,10.43
2018-11-02T08:11:38.014Z,9.77
2018-11-02T08:15:35.830Z,9.47
2018-11-02T08:19:32.592Z,10.43
2018-11-02T08:23:29.758Z,10.10
2018-11-02T08:27:26.450Z,9.70
2018-11-02T08:31:23.344Z,10.10
2018-11-02T08:35:19.965Z,13.30
2018-11-02T08:39:17.771Z,10.10
2018-11-02T08:43:14.559Z,10.53
2018-11-02T08:47:11.845Z,9.78
2018-11-02T08:51:08.717Z,9.85
2018-11-02T08:55:06.767Z,9.80
2018-11-02T08:59:03.835Z,10.87
2018-11-02T09:03:00.777Z,9.77
2018-11-02T09:06:57.921Z,12.17
2018-11-02T09:10:54.758Z,10.90
2018-11-02T09:14:52.545Z,11.77
2018-11-02T09:18:49.658Z,10.87
2018-11-02T09:22:47.160Z,11.23
2018-11-02T09:26:44.331Z,10.60
2018-11-02T09:30:41.471Z,10.58
2018-11-02T09:34:39.593Z,9.67
2018-11-02T09:38:37.522Z,10.30
2018-11-02T09:42:34.236Z,9.10
2018-11-02T09:46:34.638Z,9.90
2018-11-02T09:50:38.958Z,8.60
2018-11-02T09:54:36.145Z,8.67
2018-11-02T09:58:32.991Z,8.87
2018-11-02T10:02:29.996Z,8.10
2018-11-02T10:06:26.952Z,9.40
2018-11-02T10:10:24.579Z,8.90
2018-11-02T10:14:21.173Z,8.73
2018-11-02T10:18:18.011Z,7.83
2018-11-02T10:22:15.399Z,7.72
2018-11-02T10:26:12.084Z,7.50
2018-11-02T10:30:11.861Z,8.77
2018-11-02T10:34:08.932Z,9.13
2018-11-02T10:38:06.089Z,8.83
2018-11-02T10:42:06.834Z,8.43
2018-11-02T10:46:04.345Z,8.50
2018-11-02T10:50:01.363Z,8.60
2018-11-02T10:53:58.450Z,8.30
2018-11-02T10:57:55.664Z,8.23
2018-11-02T11:01:57.867Z,8.10
2018-11-02T11:05:54.593Z,7.37
2018-11-02T11:09:51.246Z,6.00
2018-11-02T11:13:48.295Z,7.13
2018-11-02T11:17:46.461Z,6.60
2018-11-02T11:21:44.030Z,6.47
2018-11-02T11:25:45.155Z,7.92
2018-11-02T11:29:43.254Z,6.17
2018-11-02T11:33:41.299Z,7.57
2018-11-02T11:37:38.019Z,5.97
2018-11-02T11:41:34.877Z,5.13
2018-11-02T11:45:31.777Z,5.00
2018-11-02T11:49:32.155Z,4.70
2018-11-02T11:53:39.081Z,3.57
2018-11-02T11:57:36.497Z,4.60
2018-11-02T12:01:35.570Z,3.80
2018-11-02T12:05:36.681Z,3.70
2018-11-02T12:09:33.975Z,3.53
2018-11-02T12:13:31.283Z,2.93
2018-11-02T12:17:27.713Z,2.90
2018-11-02T12:21:24.272Z,3.00
2018-11-02T12:25:22.621Z,3.27
2018-11-02T12:29:19.484Z,3.87
2018-11-02T12:33:16.262Z,3.90
2018-11-02T12:37:14.371Z,4.20
2018-11-02T12:41:11.394Z,4.83
2018-11-02T12:45:10.608Z,4.30
2018-11-02T12:49:07.765Z,3.27
2018-11-02T12:53:04.293Z,3.10
2018-11-02T12:57:01.110Z,2.60
2018-11-02T13:00:57.896Z,2.20
2018-11-02T13:04:54.674Z,2.80
2018-11-02T13:08:52.975Z,2.40
2018-11-02T13:12:50.190Z,3.00
2018-11-02T13:16:46.883Z,3.10
2018-11-02T13:20:43.411Z,2.73
2018-11-02T13:24:40.286Z,3.60
2018-11-02T13:28:37.176Z,3.47
2018-11-02T13:32:34.517Z,3.53
2018-11-02T13:36:32.459Z,3.13
2018-11-02T13:40:29.142Z,2.60
2018-11-02T13:44:26.264Z,2.00
2018-11-02T13:48:23.568Z,2.17
2018-11-02T13:52:20.669Z,1.40
2018-11-02T13:56:17.708Z,2.27
2018-11-02T14:00:17.004Z,2.97
2018-11-02T14:04:14.125Z,2.27
2018-11-02T14:08:11.685Z,2.10
2018-11-02T14:12:10.830Z,2.43
2018-11-02T14:16:09.004Z,1.83
2018-11-02T14:20:07.571Z,2.60
2018-11-02T14:24:05.931Z,2.13
2018-11-02T14:28:03.296Z,3.10
2018-11-02T14:32:00.258Z,4.87
2018-11-02T14:36:00.074Z,2.47
2018-11-02T14:39:57.026Z,2.17
2018-11-02T14:43:55.843Z,2.50
2018-11-02T14:47:53.501Z,2.40
2018-11-02T14:51:50.642Z,1.47
2018-11-02T14:55:48.456Z,1.80
2018-11-02T14:59:46.761Z,1.50
2018-11-02T15:03:43.917Z,1.83
2018-11-02T15:07:41.142Z,3.10
2018-11-02T15:11:37.897Z,2.10
2018-11-02T15:15:34.737Z,2.45
2018-11-02T15:19:32.193Z,1.75
2018-11-02T15:23:29.141Z,1.92
2018-11-02T15:27:25.784Z,2.15
2018-11-02T15:31:22.856Z,2.20
2018-11-02T15:35:21.627Z,2.70
2018-11-02T15:39:19.033Z,2.57
2018-11-02T15:43:17.007Z,2.10
2018-11-02T15:47:13.985Z,2.70
2018-11-02T15:51:10.885Z,2.62
2018-11-02T15:55:09.015Z,2.63
2018-11-02T15:59:05.991Z,2.10
2018-11-02T16:03:02.827Z,2.70
2018-11-02T16:07:00.395Z,3.07
2018-11-02T16:10:57.115Z,1.80
2018-11-02T16:14:53.939Z,2.80
2018-11-02T16:18:51.349Z,2.50
2018-11-02T16:22:48.249Z,2.40
2018-11-02T16:26:45.579Z,1.93
2018-11-02T16:30:44.159Z,8.10
2018-11-02T16:34:40.880Z,2.00
2018-11-02T16:38:38.019Z,2.20
2018-11-02T16:42:34.766Z,2.60
2018-11-02T16:46:31.610Z,3.20
2018-11-02T16:50:28.836Z,2.60
2018-11-02T16:54:25.780Z,2.50
2018-11-02T16:58:24.373Z,2.43
2018-11-02T17:02:21.431Z,3.00
2018-11-02T17:06:18.190Z,2.63
2018-11-02T17:10:15.732Z,2.72
2018-11-02T17:14:13.241Z,2.70
2018-11-02T17:18:12.900Z,3.30
2018-11-02T17:22:15.051Z,3.47
2018-11-02T17:26:11.870Z,4.00
2018-11-02T17:30:15.136Z,4.30
2018-11-02T17:34:12.125Z,4.57
2018-11-02T17:38:08.874Z,4.83
2018-11-02T17:42:05.862Z,5.17
2018-11-02T17:46:02.631Z,5.60
2018-11-02T17:49:59.502Z,5.57
2018-11-02T17:53:56.448Z,4.73
2018-11-02T17:57:54.023Z,5.53
2018-11-02T18:01:51.481Z,5.43
2018-11-02T18:05:48.287Z,5.37
2018-11-02T18:09:45.223Z,6.00
2018-11-02T18:13:42.690Z,5.50
2018-11-02T18:17:39.668Z,5.92
2018-11-02T18:21:37.930Z,5.60
2018-11-02T18:25:34.639Z,5.70
2018-11-02T18:29:31.894Z,5.57
2018-11-02T18:33:31.089Z,5.40
2018-11-02T18:37:31.529Z,4.62
2018-11-02T18:41:30.365Z,5.13
2018-11-02T18:45:30.960Z,4.80
2018-11-02T18:49:28.607Z,5.07
2018-11-02T18:53:26.435Z,4.23
2018-11-02T18:57:24.503Z,6.10
2018-11-02T19:01:21.304Z,5.43
2018-11-02T19:05:19.122Z,6.00
2018-11-02T19:09:15.911Z,5.00
2018-11-02T19:13:13.883Z,5.87
2018-11-02T19:17:15.416Z,5.73
2018-11-02T19:21:13.260Z,5.97
2018-11-02T19:25:13.081Z,6.47
2018-11-02T19:29:09.677Z,6.73
2018-11-02T19:33:07.077Z,6.67
2018-11-02T19:37:06.711Z,6.93
2018-11-02T19:41:03.909Z,6.10
2018-11-02T19:45:01.162Z,9.10
2018-11-02T19:49:00.047Z,6.43
2018-11-02T19:52:56.882Z,5.33
2018-11-02T19:56:54.430Z,6.13
2018-11-02T20:00:51.931Z,5.30
2018-11-02T20:04:48.670Z,5.37
2018-11-02T20:08:45.521Z,6.00
2018-11-02T20:12:43.190Z,5.85
2018-11-02T20:16:41.784Z,6.70
2018-11-02T20:20:38.485Z,6.90
2018-11-02T20:24:38.665Z,5.87
2018-11-02T20:28:43.969Z,6.07
2018-11-02T20:32:47.989Z,6.33
2018-11-02T20:37:01.593Z,6.80
2018-11-02T20:40:58.233Z,6.50
2018-11-02T20:44:55.093Z,5.07
2018-11-02T20:48:51.778Z,5.70
2018-11-02T20:52:48.664Z,5.45
2018-11-02T20:56:45.730Z,5.53
2018-11-02T21:00:42.225Z,5.78
2018-11-02T21:04:39.015Z,6.07
2018-11-02T21:08:35.842Z,5.30
2018-11-02T21:12:32.895Z,5.17
2018-11-02T21:16:29.810Z,5.17
2018-11-02T21:20:27.378Z,4.57
2018-11-02T21:24:24.294Z,5.13
2018-11-02T21:28:20.918Z,5.63
2018-11-02T21:32:17.767Z,5.30
2018-11-02T21:36:14.721Z,5.17
2018-11-02T21:40:13.817Z,5.83
2018-11-02T21:44:10.555Z,4.90
2018-11-02T21:48:07.470Z,4.80
2018-11-02T21:52:04.290Z,5.33
2018-11-02T21:56:01.117Z,4.53
2018-11-02T21:59:58.316Z,5.23
2018-11-02T22:03:55.972Z,4.10
2018-11-02T22:07:53.438Z,4.62
2018-11-02T22:11:51.036Z,4.80
2018-11-02T22:15:48.579Z,8.75
2018-11-02T22:19:46.086Z,5.13
2018-11-02T22:23:44.628Z,4.47
2018-11-02T22:27:41.596Z,4.60
2018-11-02T22:31:39.073Z,4.72
2018-11-02T22:35:37.346Z,4.20
2018-11-02T22:39:34.255Z,4.63
2018-11-02T22:43:31.225Z,4.33
2018-11-02T22:47:28.010Z,5.00
2018-11-02T22:51:25.139Z,6.83
2018-11-02T22:55:22.509Z,3.90
2018-11-02T22:59:19.934Z,4.40
2018-11-02T23:03:16.813Z,4.17
2018-11-02T23:07:13.833Z,4.43
2018-11-02T23:11:10.573Z,4.83
2018-11-02T23:15:08.622Z,5.10
2018-11-02T23:19:05.663Z,4.60
2018-11-02T23:23:03.639Z,5.00
2018-11-02T23:27:00.559Z,4.70
2018-11-02T23:30:57.336Z,5.00
2018-11-02T23:34:54.255Z,5.00
2018-11-02T23:38:51.078Z,4.53
2018-11-02T23:42:48.079Z,5.05
2018-11-02T23:46:45.242Z,4.70
2018-11-02T23:50:42.674Z,4.63
2018-11-02T23:54:39.478Z,4.67
2018-11-02T23:58:36.342Z,4.60
